createdAt,value
2019-05-29T00:00:35.254Z,11.77
2019-05-29T00:01:35.241Z,11.79
2019-05-29T00:02:35.239Z,11.75
2019-05-29T00:03:35.231Z,11.74
2019-05-29T00:04:35.226Z,11.72
2019-05-29T00:05:35.221Z,11.72
2019-05-29T00:06:35.212Z,11.66
2019-05-29T00:07:35.205Z,11.63
2019-05-29T00:08:35.191Z,11.69
2019-05-29T00:09:35.188Z,11.60
2019-05-29T00:10:35.181Z,11.67
2019-05-29T00:11:35.174Z,11.66
2019-05-29T00:12:35.174Z,11.64
2019-05-29T00:13:35.167Z,11.66
2019-05-29T00:14:35.154Z,11.64
2019-05-29T00:15:35.147Z,11.54
2019-05-29T00:16:35.144Z,11.54
2019-05-29T00:17:35.141Z,11.56
2019-05-29T00:18:35.129Z,11.51
2019-05-29T00:19:35.120Z,11.44
2019-05-29T00:20:35.110Z,11.54
2019-05-29T00:21:35.102Z,11.48
2019-05-29T00:22:35.094Z,11.49
2019-05-29T00:23:35.087Z,11.46
2019-05-29T00:24:35.086Z,11.46
2019-05-29T00:25:35.078Z,11.30
2019-05-29T00:26:35.074Z,11.36
2019-05-29T00:27:35.067Z,11.23
2019-05-29T00:28:35.055Z,11.24
2019-05-29T00:29:35.046Z,11.17
2019-05-29T00:30:35.046Z,11.09
2019-05-29T00:31:35.040Z,11.12
2019-05-29T00:32:35.053Z,11.03
2019-05-29T00:33:35.019Z,11.11
2019-05-29T00:34:35.008Z,11.09
2019-05-29T00:35:35.004Z,11.09
2019-05-29T00:36:34.998Z,11.13
2019-05-29T00:37:34.992Z,11.09
2019-05-29T00:38:34.986Z,11.06
2019-05-29T00:39:34.976Z,11.11
2019-05-29T00:40:34.966Z,11.03
2019-05-29T00:41:34.959Z,11.05
2019-05-29T00:42:34.954Z,11.03
2019-05-29T00:43:34.947Z,11.03
2019-05-29T00:44:34.942Z,11.05
2019-05-29T00:45:34.937Z,11.01
2019-05-29T00:46:34.924Z,11.09
2019-05-29T00:47:34.917Z,11.06
2019-05-29T00:48:34.918Z,10.95
2019-05-29T00:49:34.906Z,11.03
2019-05-29T00:50:35.065Z,10.93
2019-05-29T00:51:34.896Z,10.91
2019-05-29T00:52:34.876Z,10.93
2019-05-29T00:53:34.870Z,10.94
2019-05-29T00:54:34.864Z,10.93
2019-05-29T00:55:34.856Z,10.83
2019-05-29T00:56:34.852Z,10.84
2019-05-29T00:57:34.847Z,10.83
2019-05-29T00:58:34.842Z,10.87
2019-05-29T00:59:34.833Z,10.91
2019-05-29T01:00:34.822Z,10.80
2019-05-29T01:01:34.820Z,10.80
2019-05-29T01:02:34.829Z,10.78
2019-05-29T01:03:34.804Z,10.75
2019-05-29T01:04:34.792Z,10.70
2019-05-29T01:05:34.784Z,10.72
2019-05-29T01:06:34.775Z,10.70
2019-05-29T01:07:34.769Z,10.66
2019-05-29T01:08:34.764Z,10.65
2019-05-29T01:09:34.757Z,10.68
2019-05-29T01:10:34.753Z,10.65
2019-05-29T01:11:34.744Z,10.55
2019-05-29T01:12:34.736Z,10.54
2019-05-29T01:13:34.726Z,10.46
2019-05-29T01:14:49.268Z,10.58
2019-05-29T01:15:34.705Z,10.55
2019-05-29T01:16:34.705Z,10.44
2019-05-29T01:17:34.696Z,10.44
2019-05-29T01:18:34.685Z,10.44
2019-05-29T01:19:34.678Z,10.42
2019-05-29T01:20:34.674Z,10.43
2019-05-29T01:21:34.669Z,10.29
2019-05-29T01:22:34.663Z,10.34
2019-05-29T01:23:34.651Z,10.34
2019-05-29T01:24:34.644Z,10.28
2019-05-29T01:25:34.634Z,10.26
2019-05-29T01:26:34.635Z,10.17
2019-05-29T01:27:34.619Z,10.24
2019-05-29T01:28:34.615Z,10.26
2019-05-29T01:29:34.606Z,10.28
2019-05-29T01:30:34.599Z,10.17
2019-05-29T01:31:34.590Z,10.26
2019-05-29T01:32:34.576Z,10.24
2019-05-29T01:33:34.571Z,10.22
2019-05-29T01:34:34.568Z,10.13
2019-05-29T01:35:34.558Z,10.17
2019-05-29T01:36:34.548Z,10.16
2019-05-29T01:37:34.546Z,10.14
2019-05-29T01:38:34.535Z,10.16
2019-05-29T01:39:34.545Z,10.16
2019-05-29T01:40:34.523Z,10.06
2019-05-29T01:41:34.516Z,10.04
2019-05-29T01:42:34.509Z,9.99
2019-05-29T01:43:34.502Z,9.99
2019-05-29T01:44:34.490Z,9.99
2019-05-29T01:45:34.481Z,9.96
2019-05-29T01:46:34.470Z,9.92
2019-05-29T01:47:34.461Z,9.85
2019-05-29T01:48:34.457Z,9.77
2019-05-29T01:49:34.451Z,9.80
2019-05-29T01:50:34.443Z,9.74
2019-05-29T01:51:34.429Z,9.71
2019-05-29T01:52:34.428Z,9.81
2019-05-29T01:53:34.420Z,9.75
2019-05-29T01:54:34.412Z,9.78
2019-05-29T01:55:34.404Z,9.75
2019-05-29T01:56:34.393Z,9.75
2019-05-29T01:57:34.386Z,9.80
2019-05-29T01:58:34.378Z,9.77
2019-05-29T01:59:34.372Z,9.73
2019-05-29T02:00:34.366Z,9.70
2019-05-29T02:01:34.358Z,9.75
2019-05-29T02:02:34.349Z,9.67
2019-05-29T02:03:34.337Z,9.71
2019-05-29T02:04:34.328Z,9.65
2019-05-29T02:05:34.318Z,9.53
2019-05-29T02:06:34.316Z,9.62
2019-05-29T02:07:34.308Z,9.59
2019-05-29T02:08:34.294Z,9.49
2019-05-29T02:09:34.287Z,9.50
2019-05-29T02:10:34.283Z,9.49
2019-05-29T02:11:34.271Z,9.50
2019-05-29T02:12:34.270Z,9.44
2019-05-29T02:13:34.259Z,9.52
2019-05-29T02:14:34.260Z,9.44
2019-05-29T02:15:34.279Z,9.42
2019-05-29T02:16:34.232Z,9.50
2019-05-29T02:17:34.228Z,9.50
2019-05-29T02:18:34.218Z,9.42
2019-05-29T02:19:34.205Z,9.50
2019-05-29T02:20:34.202Z,9.45
2019-05-29T02:21:34.194Z,9.45
2019-05-29T02:22:34.181Z,9.41
2019-05-29T02:23:34.173Z,9.42
2019-05-29T02:24:34.168Z,9.31
2019-05-29T02:25:34.164Z,9.30
2019-05-29T02:26:34.155Z,9.30
2019-05-29T02:27:34.145Z,9.32
2019-05-29T02:28:34.136Z,9.31
2019-05-29T02:29:34.126Z,9.17
2019-05-29T02:30:34.121Z,9.13
2019-05-29T02:31:34.111Z,9.13
2019-05-29T02:32:34.109Z,9.13
2019-05-29T02:33:34.100Z,9.12
2019-05-29T02:34:34.090Z,9.15
2019-05-29T02:35:34.078Z,9.17
2019-05-29T02:36:34.067Z,9.15
2019-05-29T02:37:34.060Z,9.03
2019-05-29T02:38:34.057Z,8.94
2019-05-29T02:39:34.046Z,8.97
2019-05-29T02:40:34.042Z,8.97
2019-05-29T02:41:34.026Z,8.89
2019-05-29T02:42:34.021Z,8.93
2019-05-29T02:43:34.012Z,8.85
2019-05-29T02:44:34.013Z,8.86
2019-05-29T02:45:53.192Z,8.82
2019-05-29T02:46:33.991Z,8.76
2019-05-29T02:47:33.981Z,8.71
2019-05-29T02:48:33.969Z,8.71
2019-05-29T02:49:33.960Z,8.67
2019-05-29T02:50:33.952Z,8.70
2019-05-29T02:51:33.943Z,8.73
2019-05-29T02:52:33.939Z,8.73
2019-05-29T02:53:33.932Z,8.73
2019-05-29T02:54:33.918Z,8.75
2019-05-29T02:55:33.908Z,8.65
2019-05-29T02:56:33.906Z,8.73
2019-05-29T02:57:33.900Z,8.71
2019-05-29T02:58:33.900Z,8.68
2019-05-29T02:59:33.887Z,8.65
2019-05-29T03:00:33.867Z,8.68
2019-05-29T03:01:33.862Z,8.63
2019-05-29T03:02:33.853Z,8.65
2019-05-29T03:03:39.422Z,8.63
2019-05-29T03:04:33.839Z,8.67
2019-05-29T03:05:33.831Z,8.64
2019-05-29T03:06:33.823Z,8.65
2019-05-29T03:07:33.811Z,8.71
2019-05-29T03:08:34.432Z,8.63
2019-05-29T03:09:33.789Z,8.65
2019-05-29T03:10:33.786Z,8.75
2019-05-29T03:11:33.780Z,8.68
2019-05-29T03:12:33.900Z,8.70
2019-05-29T03:13:33.888Z,8.58
2019-05-29T03:14:34.699Z,8.63
2019-05-29T03:15:33.939Z,8.68
2019-05-29T03:16:34.896Z,8.60
2019-05-29T03:17:33.937Z,8.61
2019-05-29T03:18:35.028Z,8.58
2019-05-29T03:19:34.761Z,8.65
2019-05-29T03:20:34.549Z,8.58
2019-05-29T03:21:34.784Z,8.63
2019-05-29T03:22:35.142Z,8.58
2019-05-29T03:23:35.946Z,8.58
2019-05-29T03:24:35.128Z,8.63
2019-05-29T03:25:35.163Z,8.58
2019-05-29T03:26:35.112Z,8.58
2019-05-29T03:27:34.031Z,8.58
2019-05-29T03:28:35.105Z,8.60
2019-05-29T03:29:34.314Z,8.58
2019-05-29T03:30:41.383Z,8.57
2019-05-29T03:31:39.583Z,8.57
2019-05-29T03:32:42.246Z,8.57
2019-05-29T03:33:40.845Z,8.55
2019-05-29T03:34:39.269Z,8.64
2019-05-29T03:35:43.944Z,8.68
2019-05-29T03:36:39.548Z,8.68
2019-05-29T03:37:34.465Z,8.67
2019-05-29T03:38:34.963Z,8.68
2019-05-29T03:39:34.612Z,8.65
2019-05-29T03:40:35.122Z,8.64
2019-05-29T03:41:34.874Z,8.65
2019-05-29T03:42:34.474Z,8.75
2019-05-29T03:43:35.788Z,8.64
2019-05-29T03:44:35.348Z,8.73
2019-05-29T03:45:35.718Z,8.75
2019-05-29T03:46:41.185Z,8.75
2019-05-29T03:47:34.955Z,8.67
2019-05-29T03:48:34.376Z,8.68
2019-05-29T03:49:35.019Z,8.64
2019-05-29T03:50:34.947Z,8.70
2019-05-29T03:51:35.077Z,8.71
2019-05-29T03:52:34.724Z,8.70
2019-05-29T03:53:34.262Z,8.71
2019-05-29T03:54:35.317Z,8.65
2019-05-29T03:55:33.713Z,8.63
2019-05-29T03:56:34.780Z,8.71
2019-05-29T03:57:33.849Z,8.71
2019-05-29T03:58:34.848Z,8.68
2019-05-29T03:59:35.086Z,8.65
2019-05-29T04:00:41.706Z,8.70
2019-05-29T04:01:35.323Z,8.70
2019-05-29T04:02:35.266Z,8.63
2019-05-29T04:03:35.057Z,8.68
2019-05-29T04:04:34.117Z,8.67
2019-05-29T04:05:33.919Z,8.73
2019-05-29T04:06:33.487Z,8.76
2019-05-29T04:07:34.114Z,8.75
2019-05-29T04:08:33.642Z,8.82
2019-05-29T04:09:33.465Z,8.85
2019-05-29T04:10:35.576Z,8.82
2019-05-29T04:11:33.294Z,8.85
2019-05-29T04:12:33.506Z,8.83
2019-05-29T04:13:34.050Z,8.89
2019-05-29T04:14:33.522Z,8.89
2019-05-29T04:15:33.739Z,8.98
2019-05-29T04:16:52.441Z,8.89
2019-05-29T04:17:33.752Z,8.97
2019-05-29T04:18:33.876Z,8.96
2019-05-29T04:19:34.907Z,9.01
2019-05-29T04:20:33.590Z,9.03
2019-05-29T04:21:34.313Z,9.01
2019-05-29T04:22:34.319Z,9.10
2019-05-29T04:23:34.116Z,9.10
2019-05-29T04:24:33.973Z,9.19
2019-05-29T04:25:35.994Z,9.06
2019-05-29T04:26:34.015Z,9.17
2019-05-29T04:27:34.295Z,9.19
2019-05-29T04:28:34.865Z,9.19
2019-05-29T04:29:34.127Z,9.17
2019-05-29T04:30:34.302Z,9.23
2019-05-29T04:31:34.483Z,9.19
2019-05-29T04:32:34.179Z,9.27
2019-05-29T04:33:34.786Z,9.30
2019-05-29T04:34:34.267Z,9.26
2019-05-29T04:35:34.472Z,9.42
2019-05-29T04:36:34.748Z,9.41
2019-05-29T04:37:34.316Z,9.41
2019-05-29T04:38:33.910Z,9.41
2019-05-29T04:39:34.384Z,9.48
2019-05-29T04:40:34.800Z,9.49
2019-05-29T04:41:34.624Z,9.55
2019-05-29T04:42:34.009Z,9.53
2019-05-29T04:43:33.785Z,9.60
2019-05-29T04:44:33.895Z,9.60
2019-05-29T04:45:33.511Z,9.70
2019-05-29T04:46:34.026Z,9.62
2019-05-29T04:47:33.362Z,9.83
2019-05-29T04:48:34.067Z,9.85
2019-05-29T04:49:33.720Z,9.93
2019-05-29T04:50:33.465Z,10.10
2019-05-29T04:51:33.161Z,10.18
2019-05-29T04:52:33.817Z,10.34
2019-05-29T04:53:33.542Z,10.46
2019-05-29T04:54:33.316Z,10.68
2019-05-29T04:55:32.900Z,10.87
2019-05-29T04:56:32.891Z,11.08
2019-05-29T04:57:32.930Z,11.13
2019-05-29T04:58:32.897Z,11.33
2019-05-29T04:59:33.098Z,11.57
2019-05-29T05:00:33.151Z,11.85
2019-05-29T05:01:33.120Z,12.19
2019-05-29T05:02:33.102Z,12.52
2019-05-29T05:03:33.227Z,12.80
2019-05-29T05:04:33.215Z,13.27
2019-05-29T05:05:33.235Z,13.61
2019-05-29T05:06:33.229Z,14.12
2019-05-29T05:07:33.214Z,14.61
2019-05-29T05:08:33.367Z,15.04
2019-05-29T05:09:33.382Z,15.37
2019-05-29T05:10:33.391Z,15.84
2019-05-29T05:11:33.356Z,16.33
2019-05-29T05:12:33.622Z,16.77
2019-05-29T05:13:33.452Z,17.22
2019-05-29T05:14:33.593Z,17.81
2019-05-29T05:15:33.647Z,18.26
2019-05-29T05:16:33.680Z,18.60
2019-05-29T05:17:33.766Z,18.83
2019-05-29T05:18:33.788Z,19.21
2019-05-29T05:19:33.902Z,19.57
2019-05-29T05:20:33.939Z,20.13
2019-05-29T05:21:33.930Z,20.51
2019-05-29T05:22:34.175Z,20.81
2019-05-29T05:23:33.968Z,21.22
2019-05-29T05:24:34.083Z,21.59
2019-05-29T05:25:34.069Z,21.91
2019-05-29T05:26:32.793Z,22.23
2019-05-29T05:27:32.791Z,22.41
2019-05-29T05:28:32.786Z,22.72
2019-05-29T05:29:32.791Z,22.66
2019-05-29T05:30:32.791Z,22.38
2019-05-29T05:31:32.792Z,22.51
2019-05-29T05:32:32.797Z,22.45
2019-05-29T05:33:32.798Z,22.67
2019-05-29T05:34:32.800Z,22.85
2019-05-29T05:35:32.798Z,22.96
2019-05-29T05:36:32.803Z,23.09
2019-05-29T05:37:32.806Z,23.50
2019-05-29T05:38:32.804Z,23.35
2019-05-29T05:39:32.867Z,23.69
2019-05-29T05:40:35.979Z,23.97
2019-05-29T05:41:32.809Z,24.30
2019-05-29T05:42:32.931Z,24.60
2019-05-29T05:43:32.918Z,24.99
2019-05-29T05:44:32.892Z,25.16
2019-05-29T05:45:33.030Z,25.49
2019-05-29T05:46:32.973Z,25.67
2019-05-29T05:47:45.086Z,25.57
2019-05-29T05:48:33.038Z,25.96
2019-05-29T05:49:33.241Z,26.04
2019-05-29T05:50:33.315Z,26.39
2019-05-29T05:51:33.491Z,26.60
2019-05-29T05:52:33.765Z,26.69
2019-05-29T05:53:33.391Z,26.79
2019-05-29T05:54:33.373Z,26.84
2019-05-29T05:55:33.502Z,26.56
2019-05-29T05:56:33.653Z,26.65
2019-05-29T05:57:33.550Z,26.78
2019-05-29T05:58:33.800Z,27.01
2019-05-29T05:59:33.601Z,27.30
2019-05-29T06:00:33.983Z,27.62
2019-05-29T06:01:33.803Z,27.81
2019-05-29T06:02:33.760Z,27.48
2019-05-29T06:03:33.932Z,27.71
2019-05-29T06:04:33.815Z,27.77
2019-05-29T06:05:33.979Z,27.66
2019-05-29T06:06:33.939Z,27.81
2019-05-29T06:07:34.068Z,28.06
2019-05-29T06:08:34.007Z,28.32
2019-05-29T06:09:34.125Z,28.39
2019-05-29T06:10:33.944Z,28.18
2019-05-29T06:11:34.099Z,28.39
2019-05-29T06:12:34.351Z,28.39
2019-05-29T06:13:34.111Z,27.91
2019-05-29T06:14:32.944Z,28.03
2019-05-29T06:15:32.950Z,27.91
2019-05-29T06:16:33.025Z,27.96
2019-05-29T06:17:32.966Z,27.38
2019-05-29T06:18:32.975Z,25.54
2019-05-29T06:19:32.982Z,25.97
2019-05-29T06:20:32.984Z,26.35
2019-05-29T06:21:32.992Z,26.04
2019-05-29T06:22:33.003Z,26.23
2019-05-29T06:23:33.005Z,25.97
2019-05-29T06:24:33.461Z,25.98
2019-05-29T06:25:33.789Z,26.41
2019-05-29T06:26:33.017Z,26.44
2019-05-29T06:27:33.746Z,26.19
2019-05-29T06:28:33.110Z,25.94
2019-05-29T06:29:33.478Z,25.83
2019-05-29T06:30:34.008Z,26.38
2019-05-29T06:31:33.349Z,26.42
2019-05-29T06:32:33.481Z,26.12
2019-05-29T06:33:33.421Z,26.11
2019-05-29T06:34:33.491Z,25.86
2019-05-29T06:35:34.124Z,26.06
2019-05-29T06:36:33.429Z,26.12
2019-05-29T06:37:33.638Z,26.20
2019-05-29T06:38:33.597Z,26.76
2019-05-29T06:39:33.473Z,27.33
2019-05-29T06:40:33.966Z,27.45
2019-05-29T06:41:33.635Z,27.81
2019-05-29T06:42:33.584Z,27.74
2019-05-29T06:43:33.815Z,28.18
2019-05-29T06:44:34.264Z,27.93
2019-05-29T06:45:33.759Z,28.01
2019-05-29T06:46:34.333Z,27.23
2019-05-29T06:47:34.226Z,27.06
2019-05-29T06:48:50.128Z,26.46
2019-05-29T06:49:33.904Z,26.12
2019-05-29T06:50:33.178Z,25.02
2019-05-29T06:51:33.184Z,25.26
2019-05-29T06:52:33.197Z,25.04
2019-05-29T06:53:33.204Z,25.07
2019-05-29T06:54:33.208Z,24.56
2019-05-29T06:55:33.213Z,25.14
2019-05-29T06:56:33.225Z,25.72
2019-05-29T06:57:33.236Z,26.29
2019-05-29T06:58:33.265Z,26.79
2019-05-29T06:59:33.249Z,26.81
2019-05-29T07:00:35.695Z,26.31
2019-05-29T07:01:33.262Z,24.93
2019-05-29T07:02:33.271Z,24.87
2019-05-29T07:03:33.283Z,24.74
2019-05-29T07:04:33.294Z,24.42
2019-05-29T07:05:33.298Z,24.83
2019-05-29T07:06:33.303Z,25.16
2019-05-29T07:07:33.312Z,25.57
2019-05-29T07:08:38.839Z,25.51
2019-05-29T07:09:33.321Z,25.93
2019-05-29T07:10:33.370Z,26.81
2019-05-29T07:11:33.342Z,27.06
2019-05-29T07:12:33.345Z,27.61
2019-05-29T07:13:35.225Z,27.39
2019-05-29T07:14:33.363Z,27.72
2019-05-29T07:15:33.372Z,27.98
2019-05-29T07:16:43.846Z,28.69
2019-05-29T07:17:33.392Z,28.60
2019-05-29T07:18:33.406Z,28.65
2019-05-29T07:19:47.589Z,28.82
2019-05-29T07:20:33.413Z,28.72
2019-05-29T07:21:33.425Z,29.12
2019-05-29T07:22:33.428Z,29.63
2019-05-29T07:23:33.439Z,29.25
2019-05-29T07:24:33.450Z,28.87
2019-05-29T07:25:33.459Z,29.07
2019-05-29T07:26:33.569Z,28.88
2019-05-29T07:27:33.474Z,28.48
2019-05-29T07:28:33.489Z,26.66
2019-05-29T07:29:33.496Z,26.84
2019-05-29T07:30:33.514Z,27.66
2019-05-29T07:31:33.517Z,27.65
2019-05-29T07:32:33.524Z,27.48
2019-05-29T07:33:33.534Z,28.17
2019-05-29T07:34:49.682Z,29.03
2019-05-29T07:35:33.549Z,28.91
2019-05-29T07:36:33.575Z,28.89
2019-05-29T07:37:33.576Z,28.64
2019-05-29T07:38:33.586Z,28.73
2019-05-29T07:39:33.595Z,29.23
2019-05-29T07:40:35.893Z,30.11
2019-05-29T07:41:33.614Z,30.08
2019-05-29T07:42:33.627Z,30.48
2019-05-29T07:43:33.636Z,31.28
2019-05-29T07:44:33.643Z,31.23
2019-05-29T07:45:33.656Z,31.65
2019-05-29T07:46:33.668Z,32.36
2019-05-29T07:47:33.674Z,32.93
2019-05-29T07:48:33.688Z,33.43
2019-05-29T07:49:39.133Z,33.74
2019-05-29T07:50:33.712Z,33.79
2019-05-29T07:51:33.724Z,33.71
2019-05-29T07:52:33.731Z,32.31
2019-05-29T07:53:33.849Z,30.49
2019-05-29T07:54:33.761Z,29.15
2019-05-29T07:55:33.771Z,29.39
2019-05-29T07:56:33.788Z,30.13
2019-05-29T07:57:33.800Z,30.22
2019-05-29T07:58:33.808Z,29.94
2019-05-29T07:59:33.820Z,29.84
2019-05-29T08:00:36.160Z,30.22
2019-05-29T08:01:33.848Z,30.11
2019-05-29T08:02:33.859Z,30.44
2019-05-29T08:03:33.870Z,31.15
2019-05-29T08:04:33.879Z,31.94
2019-05-29T08:05:33.893Z,31.99
2019-05-29T08:06:33.907Z,32.51
2019-05-29T08:07:33.916Z,32.71
2019-05-29T08:08:33.934Z,33.28
2019-05-29T08:09:33.946Z,33.84
2019-05-29T08:10:33.964Z,32.56
2019-05-29T08:11:33.975Z,32.07
2019-05-29T08:12:34.068Z,31.67
2019-05-29T08:13:33.998Z,31.16
2019-05-29T08:14:34.016Z,31.72
2019-05-29T08:15:34.028Z,32.46
2019-05-29T08:16:34.036Z,33.15
2019-05-29T08:17:34.052Z,33.90
2019-05-29T08:18:34.064Z,34.56
2019-05-29T08:19:34.075Z,34.65
2019-05-29T08:20:34.094Z,34.65
2019-05-29T08:21:34.111Z,34.72
2019-05-29T08:22:34.848Z,35.25
2019-05-29T08:23:34.134Z,35.74
2019-05-29T08:24:34.145Z,36.60
2019-05-29T08:25:34.159Z,36.56
2019-05-29T08:26:34.177Z,36.08
2019-05-29T08:27:34.193Z,35.93
2019-05-29T08:28:34.216Z,36.71
2019-05-29T08:29:34.226Z,37.30
2019-05-29T08:30:34.238Z,37.80
2019-05-29T08:31:34.251Z,38.47
2019-05-29T08:32:34.278Z,38.97
2019-05-29T08:33:34.287Z,38.59
2019-05-29T08:34:34.302Z,38.16
2019-05-29T08:35:34.319Z,38.65
2019-05-29T08:36:34.327Z,38.71
2019-05-29T08:37:34.347Z,38.84
2019-05-29T08:38:34.364Z,38.22
2019-05-29T08:39:36.867Z,38.67
2019-05-29T08:40:34.401Z,38.95
2019-05-29T08:41:34.420Z,38.72
2019-05-29T08:42:34.437Z,38.59
2019-05-29T08:43:34.457Z,38.09
2019-05-29T08:44:34.467Z,38.53
2019-05-29T08:45:34.496Z,39.20
2019-05-29T08:46:34.510Z,39.38
2019-05-29T08:47:34.526Z,39.53
2019-05-29T08:48:34.595Z,39.87
2019-05-29T08:49:34.558Z,39.24
2019-05-29T08:50:34.579Z,38.67
2019-05-29T08:51:34.597Z,38.03
2019-05-29T08:52:34.619Z,37.43
2019-05-29T08:53:34.643Z,37.31
2019-05-29T08:54:34.657Z,37.09
2019-05-29T08:55:34.674Z,37.30
2019-05-29T08:56:34.692Z,37.82
2019-05-29T08:57:34.711Z,38.28
2019-05-29T08:58:37.233Z,38.56
2019-05-29T08:59:34.743Z,38.41
2019-05-29T09:00:34.768Z,37.25
2019-05-29T09:01:34.786Z,37.08
2019-05-29T09:02:34.805Z,37.33
2019-05-29T09:03:34.823Z,37.24
2019-05-29T09:04:34.848Z,35.84
2019-05-29T09:05:34.865Z,36.72
2019-05-29T09:06:34.888Z,37.33
2019-05-29T09:07:34.904Z,36.35
2019-05-29T09:08:34.921Z,35.00
2019-05-29T09:09:34.941Z,34.34
2019-05-29T09:10:34.961Z,33.12
2019-05-29T09:11:34.980Z,32.54
2019-05-29T09:12:35.000Z,32.21
2019-05-29T09:13:35.019Z,32.17
2019-05-29T09:14:35.039Z,32.50
2019-05-29T09:15:35.059Z,31.72
2019-05-29T09:16:35.070Z,32.31
2019-05-29T09:17:35.090Z,31.76
2019-05-29T09:18:35.112Z,31.60
2019-05-29T09:19:35.126Z,32.40
2019-05-29T09:20:57.735Z,33.47
2019-05-29T09:21:35.159Z,34.58
2019-05-29T09:22:35.180Z,35.71
2019-05-29T09:23:35.217Z,35.96
2019-05-29T09:24:35.220Z,36.28
2019-05-29T09:25:35.238Z,34.76
2019-05-29T09:26:35.256Z,32.06
2019-05-29T09:27:35.275Z,31.62
2019-05-29T09:28:35.291Z,32.50
2019-05-29T09:29:35.310Z,33.34
2019-05-29T09:30:35.327Z,34.01
2019-05-29T09:31:35.343Z,35.13
2019-05-29T09:32:49.613Z,34.93
2019-05-29T09:33:35.386Z,33.81
2019-05-29T09:34:35.407Z,34.40
2019-05-29T09:35:35.420Z,34.99
2019-05-29T09:36:35.446Z,35.56
2019-05-29T09:37:35.465Z,34.67
2019-05-29T09:38:35.484Z,35.42
2019-05-29T09:39:35.502Z,35.87
2019-05-29T09:40:35.518Z,36.48
2019-05-29T09:41:35.540Z,36.83
2019-05-29T09:42:35.577Z,35.65
2019-05-29T09:43:35.572Z,35.71
2019-05-29T09:44:39.204Z,35.05
2019-05-29T09:45:35.618Z,35.52
2019-05-29T09:46:35.640Z,34.55
2019-05-29T09:47:35.702Z,34.93
2019-05-29T09:48:48.758Z,35.54
2019-05-29T09:49:35.694Z,36.12
2019-05-29T09:50:49.547Z,36.64
2019-05-29T09:51:35.737Z,37.05
2019-05-29T09:52:35.765Z,37.66
2019-05-29T09:53:35.773Z,38.37
2019-05-29T09:54:35.996Z,38.95
2019-05-29T09:55:35.808Z,39.13
2019-05-29T09:56:35.835Z,39.38
2019-05-29T09:57:35.855Z,39.88
2019-05-29T09:58:35.875Z,40.13
2019-05-29T09:59:35.896Z,40.36
2019-05-29T10:00:35.910Z,38.79
2019-05-29T10:01:35.948Z,37.05
2019-05-29T10:02:35.953Z,34.58
2019-05-29T10:03:35.972Z,34.56
2019-05-29T10:04:36.172Z,34.03
2019-05-29T10:05:36.017Z,34.06
2019-05-29T10:06:36.042Z,32.25
2019-05-29T10:07:36.053Z,32.06
2019-05-29T10:08:36.118Z,32.14
2019-05-29T10:09:36.095Z,31.98
2019-05-29T10:10:36.118Z,32.32
2019-05-29T10:11:36.179Z,33.05
2019-05-29T10:12:36.143Z,32.83
2019-05-29T10:13:36.163Z,30.30
2019-05-29T10:14:36.181Z,29.64
2019-05-29T10:15:36.195Z,30.45
2019-05-29T10:16:36.218Z,31.07
2019-05-29T10:17:36.241Z,30.93
2019-05-29T10:18:36.257Z,30.60
2019-05-29T10:19:36.275Z,30.16
2019-05-29T10:20:36.287Z,30.08
2019-05-29T10:21:40.471Z,30.34
2019-05-29T10:22:36.328Z,30.90
2019-05-29T10:23:36.355Z,31.32
2019-05-29T10:24:36.356Z,31.72
2019-05-29T10:25:36.373Z,32.17
2019-05-29T10:26:36.389Z,32.09
2019-05-29T10:27:36.408Z,32.32
2019-05-29T10:28:49.911Z,31.78
2019-05-29T10:29:36.441Z,31.47
2019-05-29T10:30:36.458Z,31.88
2019-05-29T10:31:36.474Z,32.49
2019-05-29T10:32:36.488Z,32.53
2019-05-29T10:33:36.507Z,33.11
2019-05-29T10:34:36.524Z,32.27
2019-05-29T10:35:36.536Z,31.69
2019-05-29T10:36:36.563Z,32.65
2019-05-29T10:37:36.574Z,33.31
2019-05-29T10:38:36.586Z,34.00
2019-05-29T10:39:36.602Z,34.75
2019-05-29T10:40:36.621Z,34.78
2019-05-29T10:41:36.639Z,35.47
2019-05-29T10:42:36.653Z,36.19
2019-05-29T10:43:36.671Z,36.89
2019-05-29T10:44:36.686Z,37.31
2019-05-29T10:45:36.697Z,36.71
2019-05-29T10:46:36.728Z,35.49
2019-05-29T10:47:36.733Z,35.80
2019-05-29T10:48:36.750Z,35.95
2019-05-29T10:49:36.770Z,36.15
2019-05-29T10:50:36.787Z,34.60
2019-05-29T10:51:36.804Z,34.42
2019-05-29T10:52:36.820Z,33.52
2019-05-29T10:53:36.840Z,32.36
2019-05-29T10:54:39.240Z,32.06
2019-05-29T10:55:36.872Z,32.24
2019-05-29T10:56:36.884Z,32.72
2019-05-29T10:57:36.902Z,30.75
2019-05-29T10:58:48.530Z,30.54
2019-05-29T10:59:36.931Z,30.11
2019-05-29T11:00:39.072Z,28.97
2019-05-29T11:01:36.969Z,28.88
2019-05-29T11:02:36.992Z,28.03
2019-05-29T11:03:37.002Z,28.33
2019-05-29T11:04:37.011Z,29.17
2019-05-29T11:05:37.028Z,30.00
2019-05-29T11:06:40.505Z,30.98
2019-05-29T11:07:37.057Z,31.69
2019-05-29T11:08:37.076Z,31.91
2019-05-29T11:09:44.634Z,30.76
2019-05-29T11:10:37.102Z,30.57
2019-05-29T11:11:37.115Z,30.30
2019-05-29T11:12:39.574Z,29.78
2019-05-29T11:13:37.149Z,29.27
2019-05-29T11:14:37.162Z,28.48
2019-05-29T11:15:37.177Z,28.36
2019-05-29T11:16:39.739Z,27.27
2019-05-29T11:17:37.201Z,26.69
2019-05-29T11:18:37.233Z,25.94
2019-05-29T11:19:37.232Z,25.67
2019-05-29T11:20:37.250Z,25.45
2019-05-29T11:21:37.265Z,24.93
2019-05-29T11:22:37.273Z,24.48
2019-05-29T11:23:37.305Z,23.97
2019-05-29T11:24:37.332Z,23.97
2019-05-29T11:25:37.303Z,24.04
2019-05-29T11:26:37.320Z,24.12
2019-05-29T11:27:37.329Z,24.21
2019-05-29T11:28:37.333Z,24.12
2019-05-29T11:29:37.341Z,23.53
2019-05-29T11:30:37.356Z,23.32
2019-05-29T11:31:37.358Z,23.45
2019-05-29T11:32:37.365Z,23.47
2019-05-29T11:33:37.374Z,23.07
2019-05-29T11:34:37.380Z,22.69
2019-05-29T11:35:37.390Z,22.63
2019-05-29T11:36:37.393Z,22.44
2019-05-29T11:37:37.395Z,22.31
2019-05-29T11:38:37.404Z,22.12
2019-05-29T11:39:37.406Z,21.86
2019-05-29T11:40:37.975Z,21.98
2019-05-29T11:41:37.422Z,22.17
2019-05-29T11:42:37.426Z,22.38
2019-05-29T11:43:37.428Z,22.60
2019-05-29T11:44:37.438Z,22.49
2019-05-29T11:45:37.532Z,22.23
2019-05-29T11:46:37.442Z,22.23
2019-05-29T11:47:37.447Z,22.39
2019-05-29T11:48:37.446Z,22.41
2019-05-29T11:49:37.449Z,22.02
2019-05-29T11:50:37.454Z,21.64
2019-05-29T11:51:37.459Z,21.55
2019-05-29T11:52:42.878Z,21.33
2019-05-29T11:53:37.469Z,21.30
2019-05-29T11:54:37.471Z,21.05
2019-05-29T11:55:37.472Z,21.03
2019-05-29T11:56:37.471Z,21.13
2019-05-29T11:57:39.594Z,21.16
2019-05-29T11:58:37.479Z,21.33
2019-05-29T11:59:37.496Z,21.43
2019-05-29T12:00:37.477Z,21.22
2019-05-29T12:01:49.638Z,21.24
2019-05-29T12:02:37.490Z,21.03
2019-05-29T12:03:58.094Z,21.05
2019-05-29T12:04:37.492Z,21.06
2019-05-29T12:05:37.494Z,20.88
2019-05-29T12:06:37.497Z,21.00
2019-05-29T12:07:37.502Z,21.08
2019-05-29T12:08:37.570Z,21.18
2019-05-29T12:09:37.534Z,21.03
2019-05-29T12:10:37.493Z,21.12
2019-05-29T12:11:37.496Z,21.42
2019-05-29T12:12:37.500Z,21.55
2019-05-29T12:13:37.502Z,21.71
2019-05-29T12:14:58.029Z,21.83
2019-05-29T12:15:37.499Z,21.63
2019-05-29T12:16:37.503Z,21.67
2019-05-29T12:17:38.170Z,21.77
2019-05-29T12:18:37.509Z,21.63
2019-05-29T12:19:37.531Z,21.75
2019-05-29T12:20:37.527Z,21.94
2019-05-29T12:21:37.513Z,22.08
2019-05-29T12:22:37.525Z,22.26
2019-05-29T12:23:37.507Z,22.41
2019-05-29T12:24:37.512Z,22.56
2019-05-29T12:25:37.514Z,22.36
2019-05-29T12:26:37.510Z,22.24
2019-05-29T12:27:37.513Z,22.33
2019-05-29T12:28:37.508Z,22.52
2019-05-29T12:29:37.512Z,22.57
2019-05-29T12:30:37.517Z,22.57
2019-05-29T12:31:37.574Z,22.76
2019-05-29T12:32:37.514Z,22.70
2019-05-29T12:33:37.514Z,22.69
2019-05-29T12:34:45.170Z,22.99
2019-05-29T12:35:37.518Z,23.15
2019-05-29T12:36:37.524Z,23.41
2019-05-29T12:37:37.526Z,23.44
2019-05-29T12:38:37.526Z,23.45
2019-05-29T12:39:37.525Z,23.60
2019-05-29T12:40:37.530Z,23.74
2019-05-29T12:41:37.525Z,23.84
2019-05-29T12:42:37.524Z,23.90
2019-05-29T12:43:37.525Z,23.99
2019-05-29T12:44:37.531Z,24.06
2019-05-29T12:45:37.533Z,24.18
2019-05-29T12:46:37.530Z,24.21
2019-05-29T12:47:37.530Z,24.33
2019-05-29T12:48:37.538Z,24.45
2019-05-29T12:49:37.576Z,24.42
2019-05-29T12:50:37.544Z,23.69
2019-05-29T12:51:37.543Z,23.50
2019-05-29T12:52:37.543Z,23.57
2019-05-29T12:53:37.721Z,23.67
2019-05-29T12:54:37.544Z,23.72
2019-05-29T12:55:37.546Z,23.84
2019-05-29T12:56:37.551Z,23.87
2019-05-29T12:57:37.553Z,23.82
2019-05-29T12:58:37.557Z,23.52